Terminal Aerodrome Forecast
Issued by NWS Shreveport, LA

Home | Current Version | Previous Version | Text Only | Print | Product List | Glossary On
Versions: 1 2 3 4 5 6 7 8 9 10 11 12 13 14 15 16 17
000
FTUS44 KSHV 210520
TAFTYR
TAF
KTYR 210520Z 2106/2206 17012KT P6SM OVC010
      TEMPO 2106/2110 5SM BR OVC005
     FM211000 18012KT 5SM BR OVC005
      TEMPO 2112/2116 P6SM NSW OVC004
     FM211600 18014G23KT P6SM OVC010
     FM211900 18015G25KT P6SM VCSH OVC015
     FM220000 18016G26KT P6SM VCTS OVC025CB
      TEMPO 2200/2204 VRB20G35KT 2SM TSRA BR OVC015CB=

USA.gov is the U.S. government's official web portal to all federal, state and local government web resources and services.